sensor_id;sensor_type;location;lat;lon;timestamp;pressure;altitude;pressure_sealevel;temperature;humidity
18569;BME280;14780;48.316;-1.050;2022-07-06T00:00:08;100240.16;;;23.75;44.23
18569;BME280;14780;48.316;-1.050;2022-07-06T00:02:54;100237.69;;;23.74;44.34
18569;BME280;14780;48.316;-1.050;2022-07-06T00:05:39;100243.97;;;23.74;44.39
18569;BME280;14780;48.316;-1.050;2022-07-06T00:08:23;100231.88;;;23.70;44.33
18569;BME280;14780;48.316;-1.050;2022-07-06T00:11:08;100232.94;;;23.69;44.42
18569;BME280;14780;48.316;-1.050;2022-07-06T00:13:54;100229.63;;;23.67;44.53
18569;BME280;14780;48.316;-1.050;2022-07-06T00:16:41;100236.16;;;23.66;44.47
18569;BME280;14780;48.316;-1.050;2022-07-06T00:19:26;100247.31;;;23.65;44.53
18569;BME280;14780;48.316;-1.050;2022-07-06T00:22:10;100247.59;;;23.63;44.69
18569;BME280;14780;48.316;-1.050;2022-07-06T00:24:55;100245.09;;;23.62;44.59
18569;BME280;14780;48.316;-1.050;2022-07-06T00:27:39;100243.66;;;23.59;44.68
18569;BME280;14780;48.316;-1.050;2022-07-06T00:30:24;100239.84;;;23.60;44.64
18569;BME280;14780;48.316;-1.050;2022-07-06T00:33:09;100240.34;;;23.57;44.76
18569;BME280;14780;48.316;-1.050;2022-07-06T00:35:54;100229.66;;;23.56;44.88
18569;BME280;14780;48.316;-1.050;2022-07-06T00:38:38;100235.97;;;23.56;44.87
18569;BME280;14780;48.316;-1.050;2022-07-06T00:41:23;100234.53;;;23.54;44.88
18569;BME280;14780;48.316;-1.050;2022-07-06T00:44:08;100231.81;;;23.54;44.91
18569;BME280;14780;48.316;-1.050;2022-07-06T00:46:54;100237.75;;;23.51;45.00
18569;BME280;14780;48.316;-1.050;2022-07-06T00:49:38;100234.19;;;23.50;44.89
18569;BME280;14780;48.316;-1.050;2022-07-06T00:52:43;100239.66;;;23.50;44.89
18569;BME280;14780;48.316;-1.050;2022-07-06T00:55:31;100233.63;;;23.48;45.01
18569;BME280;14780;48.316;-1.050;2022-07-06T00:58:15;100243.13;;;23.46;45.07
18569;BME280;14780;48.316;-1.050;2022-07-06T01:01:01;100237.06;;;23.44;45.02
18569;BME280;14780;48.316;-1.050;2022-07-06T01:03:45;100237.91;;;23.44;45.06
18569;BME280;14780;48.316;-1.050;2022-07-06T01:06:30;100238.41;;;23.42;45.08
18569;BME280;14780;48.316;-1.050;2022-07-06T01:09:16;100231.25;;;23.40;44.90
18569;BME280;14780;48.316;-1.050;2022-07-06T01:12:01;100245.97;;;23.39;45.19
18569;BME280;14780;48.316;-1.050;2022-07-06T01:14:46;100242.66;;;23.38;45.23
18569;BME280;14780;48.316;-1.050;2022-07-06T01:17:33;100241.81;;;23.37;45.14
18569;BME280;14780;48.316;-1.050;2022-07-06T01:20:23;100241.81;;;23.37;45.22
18569;BME280;14780;48.316;-1.050;2022-07-06T01:23:08;100243.97;;;23.35;45.34
18569;BME280;14780;48.316;-1.050;2022-07-06T01:25:55;100241.25;;;23.35;45.27
18569;BME280;14780;48.316;-1.050;2022-07-06T01:28:41;100242.56;;;23.33;45.23
18569;BME280;14780;48.316;-1.050;2022-07-06T01:31:27;100224.75;;;23.30;45.41
18569;BME280;14780;48.316;-1.050;2022-07-06T01:34:12;100234.84;;;23.30;45.41
18569;BME280;14780;48.316;-1.050;2022-07-06T01:36:56;100228.53;;;23.29;45.33
18569;BME280;14780;48.316;-1.050;2022-07-06T01:39:41;100226.09;;;23.28;45.40
18569;BME280;14780;48.316;-1.050;2022-07-06T01:42:26;100221.66;;;23.27;45.44
18569;BME280;14780;48.316;-1.050;2022-07-06T01:45:12;100224.66;;;23.25;45.44
18569;BME280;14780;48.316;-1.050;2022-07-06T01:47:56;100224.88;;;23.24;45.43
18569;BME280;14780;48.316;-1.050;2022-07-06T01:50:41;100220.50;;;23.23;45.47
18569;BME280;14780;48.316;-1.050;2022-07-06T01:53:25;100230.34;;;23.24;45.42
18569;BME280;14780;48.316;-1.050;2022-07-06T01:56:11;100229.78;;;23.22;45.55
18569;BME280;14780;48.316;-1.050;2022-07-06T01:58:56;100219.91;;;23.21;45.58
18569;BME280;14780;48.316;-1.050;2022-07-06T02:01:41;100223.69;;;23.20;45.58
18569;BME280;14780;48.316;-1.050;2022-07-06T02:04:26;100225.63;;;23.19;45.56
18569;BME280;14780;48.316;-1.050;2022-07-06T02:07:11;100231.31;;;23.18;45.68
18569;BME280;14780;48.316;-1.050;2022-07-06T02:09:55;100217.66;;;23.18;45.66
18569;BME280;14780;48.316;-1.050;2022-07-06T02:12:40;100224.19;;;23.17;45.61
18569;BME280;14780;48.316;-1.050;2022-07-06T02:15:25;100223.38;;;23.16;45.73
18569;BME280;14780;48.316;-1.050;2022-07-06T02:18:09;100216.22;;;23.15;45.69
18569;BME280;14780;48.316;-1.050;2022-07-06T02:20:54;100213.72;;;23.14;45.67
18569;BME280;14780;48.316;-1.050;2022-07-06T02:23:39;100224.66;;;23.14;45.71
18569;BME280;14780;48.316;-1.050;2022-07-06T02:26:24;100210.38;;;23.12;45.78
18569;BME280;14780;48.316;-1.050;2022-07-06T02:29:09;100215.84;;;23.12;45.83
18569;BME280;14780;48.316;-1.050;2022-07-06T02:31:53;100208.72;;;23.11;45.80
18569;BME280;14780;48.316;-1.050;2022-07-06T02:34:38;100212.53;;;23.10;45.90
18569;BME280;14780;48.316;-1.050;2022-07-06T02:37:23;100210.03;;;23.08;45.86
18569;BME280;14780;48.316;-1.050;2022-07-06T02:40:08;100216.34;;;23.09;45.87
18569;BME280;14780;48.316;-1.050;2022-07-06T02:42:53;100210.03;;;23.08;45.90
18569;BME280;14780;48.316;-1.050;2022-07-06T02:45:38;100204.00;;;23.06;45.90
18569;BME280;14780;48.316;-1.050;2022-07-06T02:48:23;100211.38;;;23.06;45.97
18569;BME280;14780;48.316;-1.050;2022-07-06T02:51:07;100214.34;;;23.04;45.77
18569;BME280;14780;48.316;-1.050;2022-07-06T02:53:52;100209.09;;;23.03;45.83
18569;BME280;14780;48.316;-1.050;2022-07-06T02:56:37;100208.03;;;23.04;45.89
18569;BME280;14780;48.316;-1.050;2022-07-06T02:59:21;100215.63;;;23.02;45.91
18569;BME280;14780;48.316;-1.050;2022-07-06T03:02:06;100214.00;;;23.01;46.00
18569;BME280;14780;48.316;-1.050;2022-07-06T03:04:51;100212.91;;;23.02;46.01
18569;BME280;14780;48.316;-1.050;2022-07-06T03:07:36;100211.25;;;23.01;45.99
18569;BME280;14780;48.316;-1.050;2022-07-06T03:10:21;100206.88;;;23.00;46.01
18569;BME280;14780;48.316;-1.050;2022-07-06T03:13:05;100206.88;;;23.00;46.04
18569;BME280;14780;48.316;-1.050;2022-07-06T03:15:50;100199.75;;;22.99;46.05
18569;BME280;14780;48.316;-1.050;2022-07-06T03:18:34;100205.69;;;22.96;46.11
18569;BME280;14780;48.316;-1.050;2022-07-06T03:21:19;100207.34;;;22.97;46.09
18569;BME280;14780;48.316;-1.050;2022-07-06T03:24:04;100211.13;;;22.96;46.07
18569;BME280;14780;48.316;-1.050;2022-07-06T03:26:49;100211.13;;;22.96;46.11
18569;BME280;14780;48.316;-1.050;2022-07-06T03:29:34;100211.13;;;22.96;46.13
18569;BME280;14780;48.316;-1.050;2022-07-06T03:32:18;100214.94;;;22.95;46.10
18569;BME280;14780;48.316;-1.050;2022-07-06T03:35:03;100219.56;;;22.94;46.09
18569;BME280;14780;48.316;-1.050;2022-07-06T03:37:48;100215.44;;;22.92;46.19
18569;BME280;14780;48.316;-1.050;2022-07-06T03:40:34;100214.34;;;22.93;46.18
18569;BME280;14780;48.316;-1.050;2022-07-06T03:43:18;100216.47;;;22.91;46.19
18569;BME280;14780;48.316;-1.050;2022-07-06T03:46:04;100214.59;;;22.91;46.18
18569;BME280;14780;48.316;-1.050;2022-07-06T03:48:49;100220.28;;;22.90;46.13
18569;BME280;14780;48.316;-1.050;2022-07-06T03:51:33;100209.34;;;22.90;46.19
18569;BME280;14780;48.316;-1.050;2022-07-06T03:54:18;100220.28;;;22.90;46.21
18569;BME280;14780;48.316;-1.050;2022-07-06T03:57:03;100215.88;;;22.89;46.27
18569;BME280;14780;48.316;-1.050;2022-07-06T03:59:48;100222.19;;;22.89;46.26
18569;BME280;14780;48.316;-1.050;2022-07-06T04:02:33;100222.41;;;22.88;46.33
18569;BME280;14780;48.316;-1.050;2022-07-06T04:05:18;100227.66;;;22.89;46.24
18569;BME280;14780;48.316;-1.050;2022-07-06T04:08:06;100219.69;;;22.88;46.30
18569;BME280;14780;48.316;-1.050;2022-07-06T04:10:51;100228.94;;;22.87;46.33
18569;BME280;14780;48.316;-1.050;2022-07-06T04:13:35;100228.94;;;22.87;46.29
18569;BME280;14780;48.316;-1.050;2022-07-06T04:16:21;100237.13;;;22.87;46.37
18569;BME280;14780;48.316;-1.050;2022-07-06T04:19:06;100236.56;;;22.85;46.34
18569;BME280;14780;48.316;-1.050;2022-07-06T04:21:50;100238.66;;;22.83;46.33
18569;BME280;14780;48.316;-1.050;2022-07-06T04:24:35;100238.22;;;22.86;46.37
18569;BME280;14780;48.316;-1.050;2022-07-06T04:27:20;100234.63;;;22.85;46.34
18569;BME280;14780;48.316;-1.050;2022-07-06T04:30:06;100240.09;;;22.85;46.46
18569;BME280;14780;48.316;-1.050;2022-07-06T04:32:51;100242.81;;;22.85;46.36
18569;BME280;14780;48.316;-1.050;2022-07-06T04:35:36;100231.09;;;22.85;46.43
18569;BME280;14780;48.316;-1.050;2022-07-06T04:38:20;100237.38;;;22.85;46.33
18569;BME280;14780;48.316;-1.050;2022-07-06T04:41:05;100231.09;;;22.85;46.36
18569;BME280;14780;48.316;-1.050;2022-07-06T04:43:50;100244.47;;;22.86;46.35
18569;BME280;14780;48.316;-1.050;2022-07-06T04:46:35;100245.56;;;22.85;46.40
18569;BME280;14780;48.316;-1.050;2022-07-06T04:49:19;100239.28;;;22.85;46.45
18569;BME280;14780;48.316;-1.050;2022-07-06T04:52:05;100234.63;;;22.85;46.41
18569;BME280;14780;48.316;-1.050;2022-07-06T04:54:50;100237.63;;;22.84;46.39
18569;BME280;14780;48.316;-1.050;2022-07-06T04:57:35;100249.13;;;22.86;46.44
18569;BME280;14780;48.316;-1.050;2022-07-06T05:00:20;100242.81;;;22.85;46.51
18569;BME280;14780;48.316;-1.050;2022-07-06T05:03:06;100254.59;;;22.86;46.42
18569;BME280;14780;48.316;-1.050;2022-07-06T05:05:50;100254.59;;;22.86;46.48
18569;BME280;14780;48.316;-1.050;2022-07-06T05:08:35;100258.97;;;22.87;46.44
18569;BME280;14780;48.316;-1.050;2022-07-06T05:11:20;100260.03;;;22.86;46.46
18569;BME280;14780;48.316;-1.050;2022-07-06T05:14:05;100260.03;;;22.86;46.44
18569;BME280;14780;48.316;-1.050;2022-07-06T05:16:50;100262.50;;;22.87;46.52
18569;BME280;14780;48.316;-1.050;2022-07-06T05:19:34;100251.00;;;22.85;46.48
18569;BME280;14780;48.316;-1.050;2022-07-06T05:22:19;100253.50;;;22.87;46.39
18569;BME280;14780;48.316;-1.050;2022-07-06T05:25:04;100261.94;;;22.85;46.46
18569;BME280;14780;48.316;-1.050;2022-07-06T05:27:49;100258.75;;;22.88;46.50
18569;BME280;14780;48.316;-1.050;2022-07-06T05:30:34;100259.78;;;22.87;46.50
18569;BME280;14780;48.316;-1.050;2022-07-06T05:33:18;100269.66;;;22.88;46.49
18569;BME280;14780;48.316;-1.050;2022-07-06T05:36:04;100270.47;;;22.89;46.48
18569;BME280;14780;48.316;-1.050;2022-07-06T05:38:48;100271.31;;;22.89;46.46
18569;BME280;14780;48.316;-1.050;2022-07-06T05:41:33;100267.50;;;22.90;46.43
18569;BME280;14780;48.316;-1.050;2022-07-06T05:44:18;100272.13;;;22.90;46.55
18569;BME280;14780;48.316;-1.050;2022-07-06T05:47:03;100269.41;;;22.90;46.49
18569;BME280;14780;48.316;-1.050;2022-07-06T05:50:07;100273.78;;;22.91;46.59
18569;BME280;14780;48.316;-1.050;2022-07-06T05:53:01;100273.31;;;22.94;46.46
18569;BME280;14780;48.316;-1.050;2022-07-06T05:55:46;100274.13;;;22.94;46.50
18569;BME280;14780;48.316;-1.050;2022-07-06T05:58:32;100274.75;;;22.96;46.55
18569;BME280;14780;48.316;-1.050;2022-07-06T06:01:16;100276.41;;;22.97;46.65
18569;BME280;14780;48.316;-1.050;2022-07-06T06:04:01;100277.84;;;23.00;46.65
18569;BME280;14780;48.316;-1.050;2022-07-06T06:06:45;100283.31;;;23.00;46.64
18569;BME280;14780;48.316;-1.050;2022-07-06T06:09:30;100281.16;;;23.02;46.71
18569;BME280;14780;48.316;-1.050;2022-07-06T06:12:15;100279.50;;;23.01;46.80
18569;BME280;14780;48.316;-1.050;2022-07-06T06:15:00;100280.94;;;23.03;46.82
18569;BME280;14780;48.316;-1.050;2022-07-06T06:17:45;100283.38;;;23.05;46.78
18569;BME280;14780;48.316;-1.050;2022-07-06T06:20:30;100281.28;;;23.07;46.93
18569;BME280;14780;48.316;-1.050;2022-07-06T06:23:15;100288.97;;;23.10;47.02
18569;BME280;14780;48.316;-1.050;2022-07-06T06:26:00;100283.06;;;23.13;46.89
18569;BME280;14780;48.316;-1.050;2022-07-06T06:28:45;100283.88;;;23.13;46.99
18569;BME280;14780;48.316;-1.050;2022-07-06T06:31:30;100291.38;;;23.18;47.11
18569;BME280;14780;48.316;-1.050;2022-07-06T06:34:14;100289.22;;;23.20;47.19
18569;BME280;14780;48.316;-1.050;2022-07-06T06:36:59;100276.19;;;23.22;47.26
18569;BME280;14780;48.316;-1.050;2022-07-06T06:39:44;100292.09;;;23.25;47.20
18569;BME280;14780;48.316;-1.050;2022-07-06T06:42:29;100281.75;;;23.27;47.34
18569;BME280;14780;48.316;-1.050;2022-07-06T06:45:14;100274.38;;;23.27;47.50
18569;BME280;14780;48.316;-1.050;2022-07-06T06:47:59;100274.75;;;23.31;47.64
18569;BME280;14780;48.316;-1.050;2022-07-06T06:50:44;100278.91;;;23.33;47.73
18569;BME280;14780;48.316;-1.050;2022-07-06T06:53:29;100287.44;;;23.37;47.56
18569;BME280;14780;48.316;-1.050;2022-07-06T06:56:14;100287.56;;;23.42;47.93
18569;BME280;14780;48.316;-1.050;2022-07-06T06:58:59;100288.38;;;23.42;47.87
18569;BME280;14780;48.316;-1.050;2022-07-06T07:01:45;100285.53;;;23.37;47.72
18569;BME280;14780;48.316;-1.050;2022-07-06T07:04:30;100290.28;;;23.30;47.72
18569;BME280;14780;48.316;-1.050;2022-07-06T07:07:15;100284.72;;;23.25;47.75
18569;BME280;14780;48.316;-1.050;2022-07-06T07:10:00;100287.34;;;23.20;47.67
18569;BME280;14780;48.316;-1.050;2022-07-06T07:12:46;100287.22;;;23.15;47.75
18569;BME280;14780;48.316;-1.050;2022-07-06T07:15:31;100294.44;;;23.10;47.58
18569;BME280;14780;48.316;-1.050;2022-07-06T07:18:17;100296.00;;;23.06;47.56
18569;BME280;14780;48.316;-1.050;2022-07-06T07:21:01;100299.19;;;23.03;47.46
18569;BME280;14780;48.316;-1.050;2022-07-06T07:23:46;100291.50;;;23.00;47.51
18569;BME280;14780;48.316;-1.050;2022-07-06T07:26:31;100296.34;;;22.98;47.47
18569;BME280;14780;48.316;-1.050;2022-07-06T07:29:15;100296.81;;;22.95;47.72
18569;BME280;14780;48.316;-1.050;2022-07-06T07:32:00;100299.31;;;22.96;47.46
18569;BME280;14780;48.316;-1.050;2022-07-06T07:34:45;100308.31;;;22.97;47.54
18569;BME280;14780;48.316;-1.050;2022-07-06T07:37:30;100306.88;;;22.94;47.57
18569;BME280;14780;48.316;-1.050;2022-07-06T07:40:15;100311.53;;;22.94;47.56
18569;BME280;14780;48.316;-1.050;2022-07-06T07:43:00;100307.97;;;22.93;47.50
18569;BME280;14780;48.316;-1.050;2022-07-06T07:45:45;100315.94;;;22.95;47.48
18569;BME280;14780;48.316;-1.050;2022-07-06T07:48:30;100313.78;;;22.97;47.47
18569;BME280;14780;48.316;-1.050;2022-07-06T07:51:14;100314.84;;;22.96;47.50
18569;BME280;14780;48.316;-1.050;2022-07-06T07:53:59;100323.28;;;22.94;47.59
18569;BME280;14780;48.316;-1.050;2022-07-06T07:56:44;100316.41;;;22.92;47.54
18569;BME280;14780;48.316;-1.050;2022-07-06T07:59:29;100308.22;;;22.92;47.43
18569;BME280;14780;48.316;-1.050;2022-07-06T08:02:13;100314.28;;;22.94;47.49
18569;BME280;14780;48.316;-1.050;2022-07-06T08:04:58;100312.00;;;22.91;47.74
18569;BME280;14780;48.316;-1.050;2022-07-06T08:07:43;100305.13;;;22.88;47.78
18569;BME280;14780;48.316;-1.050;2022-07-06T08:10:28;100307.97;;;22.93;47.66
18569;BME280;14780;48.316;-1.050;2022-07-06T08:13:12;100307.88;;;23.00;47.52
18569;BME280;14780;48.316;-1.050;2022-07-06T08:15:59;100305.13;;;23.00;47.45
18569;BME280;14780;48.316;-1.050;2022-07-06T08:18:44;100301.34;;;23.01;47.42
18569;BME280;14780;48.316;-1.050;2022-07-06T08:21:29;100298.59;;;23.01;47.40
18569;BME280;14780;48.316;-1.050;2022-07-06T08:24:13;100298.97;;;23.04;47.40
18569;BME280;14780;48.316;-1.050;2022-07-06T08:26:58;100303.69;;;23.09;47.34
18569;BME280;14780;48.316;-1.050;2022-07-06T08:29:42;100300.75;;;23.10;47.21
18569;BME280;14780;48.316;-1.050;2022-07-06T08:32:27;100301.09;;;23.14;47.18
18569;BME280;14780;48.316;-1.050;2022-07-06T08:35:12;100296.72;;;23.13;47.12
18569;BME280;14780;48.316;-1.050;2022-07-06T08:37:57;100301.09;;;23.14;47.13
18569;BME280;14780;48.316;-1.050;2022-07-06T08:40:45;100303.59;;;23.15;47.11
18569;BME280;14780;48.316;-1.050;2022-07-06T08:43:33;100296.84;;;23.18;47.13
18569;BME280;14780;48.316;-1.050;2022-07-06T08:46:20;100307.28;;;23.21;47.16
18569;BME280;14780;48.316;-1.050;2022-07-06T08:49:07;100305.50;;;23.26;47.05
18569;BME280;14780;48.316;-1.050;2022-07-06T08:51:52;100308.34;;;23.31;47.01
18569;BME280;14780;48.316;-1.050;2022-07-06T08:54:38;100306.56;;;23.37;47.01
18569;BME280;14780;48.316;-1.050;2022-07-06T08:57:24;100310.47;;;23.40;47.06
18569;BME280;14780;48.316;-1.050;2022-07-06T09:00:10;100295.41;;;23.38;47.01
18569;BME280;14780;48.316;-1.050;2022-07-06T09:02:55;100299.44;;;23.36;46.89
18569;BME280;14780;48.316;-1.050;2022-07-06T09:05:44;100307.63;;;23.36;46.76
18569;BME280;14780;48.316;-1.050;2022-07-06T09:08:31;100309.75;;;23.33;46.61
18569;BME280;14780;48.316;-1.050;2022-07-06T09:11:16;100306.66;;;23.30;46.49
18569;BME280;14780;48.316;-1.050;2022-07-06T09:14:01;100314.28;;;23.28;46.48
18569;BME280;14780;48.316;-1.050;2022-07-06T09:16:48;100309.03;;;23.27;46.50
18569;BME280;14780;48.316;-1.050;2022-07-06T09:19:36;100316.19;;;23.28;46.38
18569;BME280;14780;48.316;-1.050;2022-07-06T09:22:29;100317.13;;;23.33;46.35
18569;BME280;14780;48.316;-1.050;2022-07-06T09:25:16;100313.47;;;23.28;46.32
18569;BME280;14780;48.316;-1.050;2022-07-06T09:28:01;100318.09;;;23.27;46.26
18569;BME280;14780;48.316;-1.050;2022-07-06T09:30:46;100316.19;;;23.28;46.19
18569;BME280;14780;48.316;-1.050;2022-07-06T09:33:31;100314.41;;;23.33;46.20
18569;BME280;14780;48.316;-1.050;2022-07-06T09:36:17;100320.56;;;23.40;46.06
18569;BME280;14780;48.316;-1.050;2022-07-06T09:42:07;100322.69;;;23.49;46.10
18569;BME280;14780;48.316;-1.050;2022-07-06T09:44:54;100323.50;;;23.50;46.15
18569;BME280;14780;48.316;-1.050;2022-07-06T09:47:45;100316.84;;;23.57;46.17
18569;BME280;14780;48.316;-1.050;2022-07-06T09:50:45;100313.38;;;23.73;45.97
18569;BME280;14780;48.316;-1.050;2022-07-06T09:53:30;100317.53;;;23.76;45.93
18569;BME280;14780;48.316;-1.050;2022-07-06T09:56:15;100318.44;;;23.81;45.85
18569;BME280;14780;48.316;-1.050;2022-07-06T09:59:12;100320.25;;;23.87;45.70
18569;BME280;14780;48.316;-1.050;2022-07-06T10:02:07;100315.94;;;23.91;45.75
18569;BME280;14780;48.316;-1.050;2022-07-06T10:04:53;100313.56;;;23.83;45.70
18569;BME280;14780;48.316;-1.050;2022-07-06T10:07:39;100314.16;;;23.85;45.56
18569;BME280;14780;48.316;-1.050;2022-07-06T10:10:29;100324.06;;;23.86;45.65
18569;BME280;14780;48.316;-1.050;2022-07-06T10:13:14;100311.91;;;23.82;45.59
18569;BME280;14780;48.316;-1.050;2022-07-06T10:16:04;100321.06;;;23.88;45.57
18569;BME280;14780;48.316;-1.050;2022-07-06T10:18:50;100318.09;;;23.89;45.41
18569;BME280;14780;48.316;-1.050;2022-07-06T10:21:39;100323.56;;;23.89;45.30
18569;BME280;14780;48.316;-1.050;2022-07-06T10:24:25;100330.56;;;23.85;45.33
18569;BME280;14780;48.316;-1.050;2022-07-06T10:27:12;100320.72;;;23.84;45.46
18569;BME280;14780;48.316;-1.050;2022-07-06T10:29:57;100320.72;;;23.84;45.39
18569;BME280;14780;48.316;-1.050;2022-07-06T10:32:44;100319.63;;;23.85;45.38
18569;BME280;14780;48.316;-1.050;2022-07-06T10:35:30;100324.50;;;23.83;45.27
18569;BME280;14780;48.316;-1.050;2022-07-06T10:38:15;100319.41;;;23.87;45.23
18569;BME280;14780;48.316;-1.050;2022-07-06T10:41:06;100318.94;;;23.90;45.31
18569;BME280;14780;48.316;-1.050;2022-07-06T10:43:51;100306.06;;;23.90;45.29
18569;BME280;14780;48.316;-1.050;2022-07-06T10:46:36;100324.75;;;23.93;45.34
18569;BME280;14780;48.316;-1.050;2022-07-06T10:49:21;100327.56;;;23.98;45.33
18569;BME280;14780;48.316;-1.050;2022-07-06T10:52:07;100313.53;;;24.06;45.27
18569;BME280;14780;48.316;-1.050;2022-07-06T10:54:56;100312.53;;;24.12;45.01
18569;BME280;14780;48.316;-1.050;2022-07-06T10:57:53;100312.63;;;24.17;45.13
18569;BME280;14780;48.316;-1.050;2022-07-06T11:00:55;100318.94;;;24.18;45.00
18569;BME280;14780;48.316;-1.050;2022-07-06T11:03:45;100317.41;;;24.10;45.03
18569;BME280;14780;48.316;-1.050;2022-07-06T11:06:33;100309.22;;;24.10;44.99
18569;BME280;14780;48.316;-1.050;2022-07-06T11:09:19;100293.66;;;24.11;45.06
18569;BME280;14780;48.316;-1.050;2022-07-06T11:12:17;100298.28;;;24.10;45.03
18569;BME280;14780;48.316;-1.050;2022-07-06T11:15:03;100283.53;;;24.11;45.02
18569;BME280;14780;48.316;-1.050;2022-07-06T11:18:11;100288.00;;;24.17;45.13
18569;BME280;14780;48.316;-1.050;2022-07-06T11:21:20;100281.00;;;24.21;45.17
18569;BME280;14780;48.316;-1.050;2022-07-06T11:24:06;100282.53;;;24.17;45.04
18569;BME280;14780;48.316;-1.050;2022-07-06T11:26:52;100285.84;;;24.19;44.99
18569;BME280;14780;48.316;-1.050;2022-07-06T11:29:38;100295.25;;;24.23;44.88
18569;BME280;14780;48.316;-1.050;2022-07-06T11:32:25;100292.50;;;24.23;44.92
18569;BME280;14780;48.316;-1.050;2022-07-06T11:35:10;100298.31;;;24.27;44.96
18569;BME280;14780;48.316;-1.050;2022-07-06T11:37:55;100286.53;;;24.26;44.90
18569;BME280;14780;48.316;-1.050;2022-07-06T11:40:40;100302.72;;;24.28;44.75
18569;BME280;14780;48.316;-1.050;2022-07-06T11:43:25;100297.00;;;24.29;44.79
18569;BME280;14780;48.316;-1.050;2022-07-06T11:49:08;100295.84;;;24.42;44.78
18569;BME280;14780;48.316;-1.050;2022-07-06T11:51:53;100287.97;;;24.45;44.83
18569;BME280;14780;48.316;-1.050;2022-07-06T11:54:39;100285.34;;;24.50;44.71
18569;BME280;14780;48.316;-1.050;2022-07-06T11:57:24;100284.25;;;24.51;44.64
18569;BME280;14780;48.316;-1.050;2022-07-06T12:00:10;100296.84;;;24.52;44.60
18569;BME280;14780;48.316;-1.050;2022-07-06T12:03:02;100289.81;;;24.56;44.66
18569;BME280;14780;48.316;-1.050;2022-07-06T12:05:47;100291.16;;;24.54;44.55
18569;BME280;14780;48.316;-1.050;2022-07-06T12:08:40;100288.66;;;24.52;44.56
18569;BME280;14780;48.316;-1.050;2022-07-06T12:11:28;100290.31;;;24.53;44.50
18569;BME280;14780;48.316;-1.050;2022-07-06T12:17:08;100284.63;;;24.71;44.48
18569;BME280;14780;48.316;-1.050;2022-07-06T12:19:54;100279.41;;;24.70;44.30
18569;BME280;14780;48.316;-1.050;2022-07-06T12:22:39;100277.00;;;24.73;44.16
18569;BME280;14780;48.316;-1.050;2022-07-06T12:25:31;100277.13;;;24.83;44.17
18569;BME280;14780;48.316;-1.050;2022-07-06T12:28:23;100287.41;;;24.93;44.08
18569;BME280;14780;48.316;-1.050;2022-07-06T12:31:09;100295.41;;;24.94;43.98
18569;BME280;14780;48.316;-1.050;2022-07-06T12:33:57;100289.72;;;25.01;43.74
18569;BME280;14780;48.316;-1.050;2022-07-06T12:36:53;100291.56;;;25.12;43.97
18569;BME280;14780;48.316;-1.050;2022-07-06T12:39:43;100293.44;;;25.11;43.37
18569;BME280;14780;48.316;-1.050;2022-07-06T12:42:28;100300.00;;;25.10;43.72
18569;BME280;14780;48.316;-1.050;2022-07-06T12:45:13;100294.88;;;25.14;43.47
18569;BME280;14780;48.316;-1.050;2022-07-06T12:48:05;100294.66;;;25.20;43.43
18569;BME280;14780;48.316;-1.050;2022-07-06T12:50:50;100291.03;;;25.15;43.31
18569;BME280;14780;48.316;-1.050;2022-07-06T12:53:35;100292.97;;;25.14;43.54
18569;BME280;14780;48.316;-1.050;2022-07-06T12:56:20;100291.88;;;25.15;43.49
18569;BME280;14780;48.316;-1.050;2022-07-06T12:59:06;100294.44;;;25.22;43.20
18569;BME280;14780;48.316;-1.050;2022-07-06T13:01:51;100283.63;;;25.32;43.16
18569;BME280;14780;48.316;-1.050;2022-07-06T13:04:40;100267.34;;;25.42;42.97
18569;BME280;14780;48.316;-1.050;2022-07-06T13:07:26;100269.88;;;25.48;42.85
18569;BME280;14780;48.316;-1.050;2022-07-06T13:10:13;100260.16;;;25.57;42.90
18569;BME280;14780;48.316;-1.050;2022-07-06T13:12:58;100254.22;;;25.65;42.64
18569;BME280;14780;48.316;-1.050;2022-07-06T13:15:43;100250.63;;;25.65;42.84
18569;BME280;14780;48.316;-1.050;2022-07-06T13:18:28;100256.44;;;25.68;42.74
18569;BME280;14780;48.316;-1.050;2022-07-06T13:21:13;100248.59;;;25.77;42.58
18569;BME280;14780;48.316;-1.050;2022-07-06T13:23:58;100246.78;;;25.87;42.60
18569;BME280;14780;48.316;-1.050;2022-07-06T13:26:43;100257.66;;;26.04;42.34
18569;BME280;14780;48.316;-1.050;2022-07-06T13:29:29;100246.59;;;26.20;42.36
18569;BME280;14780;48.316;-1.050;2022-07-06T13:32:13;100241.84;;;26.37;42.12
18569;BME280;14780;48.316;-1.050;2022-07-06T13:34:58;100245.22;;;26.49;42.00
18569;BME280;14780;48.316;-1.050;2022-07-06T13:37:43;100233.28;;;26.60;41.67
18569;BME280;14780;48.316;-1.050;2022-07-06T13:40:31;100228.38;;;26.67;41.72
18569;BME280;14780;48.316;-1.050;2022-07-06T13:43:16;100215.75;;;26.71;41.85
18569;BME280;14780;48.316;-1.050;2022-07-06T13:46:02;100224.53;;;26.68;41.55
18569;BME280;14780;48.316;-1.050;2022-07-06T13:48:47;100221.50;;;26.65;41.70
18569;BME280;14780;48.316;-1.050;2022-07-06T13:51:32;100214.88;;;26.61;41.82
18569;BME280;14780;48.316;-1.050;2022-07-06T13:54:17;100209.16;;;26.72;41.91
18569;BME280;14780;48.316;-1.050;2022-07-06T13:57:03;100214.84;;;26.97;41.46
18569;BME280;14780;48.316;-1.050;2022-07-06T13:59:49;100210.53;;;27.11;41.44
18569;BME280;14780;48.316;-1.050;2022-07-06T14:02:33;100212.03;;;27.29;41.07
18569;BME280;14780;48.316;-1.050;2022-07-06T14:05:18;100203.56;;;27.40;40.86
18569;BME280;14780;48.316;-1.050;2022-07-06T14:08:02;100207.13;;;27.46;40.74
18569;BME280;14780;48.316;-1.050;2022-07-06T14:10:47;100199.72;;;27.51;40.61
18569;BME280;14780;48.316;-1.050;2022-07-06T14:13:32;100212.44;;;27.72;40.17
18569;BME280;14780;48.316;-1.050;2022-07-06T14:16:18;100198.50;;;27.94;40.03
18569;BME280;14780;48.316;-1.050;2022-07-06T14:19:03;100195.75;;;27.99;39.59
18569;BME280;14780;48.316;-1.050;2022-07-06T14:21:48;100195.75;;;27.94;39.44
18569;BME280;14780;48.316;-1.050;2022-07-06T14:24:33;100198.81;;;28.27;39.41